createdAt,value
2022-11-16T00:01:13.159Z,-0.50
2022-11-16T00:03:40.675Z,-0.55
2022-11-16T00:06:08.611Z,-0.58
2022-11-16T00:08:44.127Z,-0.60
2022-11-16T00:11:15.994Z,-0.67
2022-11-16T00:13:44.143Z,-0.69
2022-11-16T00:16:16.684Z,-0.63
2022-11-16T00:18:44.833Z,-0.66
2022-11-16T00:21:12.151Z,-0.53
2022-11-16T00:23:39.387Z,-0.43
2022-11-16T00:26:08.449Z,-0.50
2022-11-16T00:28:36.731Z,-0.51
2022-11-16T00:31:05.839Z,-0.68
2022-11-16T00:33:36.949Z,-0.70
2022-11-16T00:36:05.923Z,-0.71
2022-11-16T00:38:36.562Z,-0.74
2022-11-16T00:41:05.689Z,-0.61
2022-11-16T00:43:34.250Z,-0.68
2022-11-16T00:46:01.576Z,-1.02
2022-11-16T00:48:28.579Z,-0.90
2022-11-16T00:50:55.716Z,-0.93
2022-11-16T00:53:23.305Z,-0.78
2022-11-16T00:55:50.781Z,-0.88
2022-11-16T00:58:20.165Z,-0.89
2022-11-16T01:00:52.619Z,-1.04
2022-11-16T01:03:20.101Z,-0.90
2022-11-16T01:05:47.302Z,-0.73
2022-11-16T01:08:14.780Z,-0.74
2022-11-16T01:10:42.131Z,-0.78
2022-11-16T01:13:12.165Z,-0.62
2022-11-16T01:15:39.075Z,-0.69
2022-11-16T01:18:06.005Z,-0.71
2022-11-16T01:20:33.062Z,-0.57
2022-11-16T01:23:00.070Z,-0.85
2022-11-16T01:25:26.916Z,-0.72
2022-11-16T01:27:53.909Z,-0.85
2022-11-16T01:30:30.014Z,-0.53
2022-11-16T01:33:04.017Z,-0.85
2022-11-16T01:35:30.948Z,-0.91
2022-11-16T01:37:58.339Z,-0.82
2022-11-16T01:40:27.667Z,-0.71
2022-11-16T01:42:54.935Z,-0.75
2022-11-16T01:45:35.431Z,-0.88
2022-11-16T01:48:05.494Z,-0.98
2022-11-16T01:50:34.839Z,-1.01
2022-11-16T01:53:05.904Z,-1.01
2022-11-16T01:55:44.626Z,-1.08
2022-11-16T01:58:44.834Z,-1.03
2022-11-16T02:01:17.176Z,-0.90
2022-11-16T02:03:50.022Z,-1.10
2022-11-16T02:06:23.109Z,-1.31
2022-11-16T02:09:25.688Z,-0.98
2022-11-16T02:12:00.720Z,-1.12
2022-11-16T02:14:53.904Z,-1.25
2022-11-16T02:17:26.082Z,-1.16
2022-11-16T02:20:30.562Z,-1.16
2022-11-16T02:23:34.800Z,-1.04
2022-11-16T02:26:14.096Z,-1.23
2022-11-16T02:28:46.758Z,-1.13
2022-11-16T02:31:26.936Z,-1.11
2022-11-16T02:33:59.457Z,-0.97
2022-11-16T02:36:26.767Z,-0.95
2022-11-16T02:39:02.728Z,-0.93
2022-11-16T02:41:34.223Z,-1.01
2022-11-16T02:44:07.275Z,-0.67
2022-11-16T02:46:39.092Z,-0.75
2022-11-16T02:49:13.824Z,-0.74
2022-11-16T02:51:42.608Z,-0.52
2022-11-16T02:54:21.277Z,-0.36
2022-11-16T02:57:16.961Z,-0.57
2022-11-16T02:59:51.542Z,-0.62
2022-11-16T03:02:47.191Z,-0.41
2022-11-16T03:05:20.286Z,-0.66
2022-11-16T03:08:04.070Z,-0.78
2022-11-16T03:10:34.428Z,-0.67
2022-11-16T03:13:07.791Z,-0.64
2022-11-16T03:15:39.254Z,-0.60
2022-11-16T03:18:08.854Z,-0.81
2022-11-16T03:20:38.795Z,-0.65
2022-11-16T03:23:10.851Z,-0.62
2022-11-16T03:25:52.687Z,-0.62
2022-11-16T03:28:47.757Z,-0.85
2022-11-16T03:31:24.492Z,-0.75
2022-11-16T03:33:56.301Z,-0.87
2022-11-16T03:36:35.068Z,-0.71
2022-11-16T03:39:12.779Z,-0.76
2022-11-16T03:41:44.140Z,-0.81
2022-11-16T03:44:15.418Z,-0.82
2022-11-16T03:46:44.462Z,-0.76
2022-11-16T03:49:15.645Z,-0.79
2022-11-16T03:51:45.782Z,-0.80
2022-11-16T03:54:13.025Z,-0.75
2022-11-16T03:56:40.718Z,-0.86
2022-11-16T03:59:08.530Z,-0.74
2022-11-16T04:01:38.215Z,-0.93
2022-11-16T04:04:10.352Z,-1.05
2022-11-16T04:06:37.254Z,-1.06
2022-11-16T04:09:05.984Z,-0.93
2022-11-16T04:11:34.816Z,-0.83
2022-11-16T04:14:06.548Z,-1.07
2022-11-16T04:16:36.283Z,-1.02
2022-11-16T04:19:08.223Z,-1.37
2022-11-16T04:21:40.871Z,-1.31
2022-11-16T04:24:17.328Z,-1.43
2022-11-16T04:26:50.775Z,-1.30
2022-11-16T04:29:18.440Z,-1.29
2022-11-16T04:31:46.625Z,-1.08
2022-11-16T04:34:13.919Z,-1.39
2022-11-16T04:36:46.126Z,-1.09
2022-11-16T04:39:13.125Z,-1.25
2022-11-16T04:41:40.805Z,-1.20
2022-11-16T04:44:07.889Z,-1.28
2022-11-16T04:46:36.587Z,-1.39
2022-11-16T04:49:04.315Z,-1.24
2022-11-16T04:51:31.588Z,-1.18
2022-11-16T04:53:59.256Z,-1.13
2022-11-16T04:56:27.454Z,-1.14
2022-11-16T04:58:54.769Z,-1.12
2022-11-16T05:01:22.209Z,-1.20
2022-11-16T05:03:51.952Z,-1.28
2022-11-16T05:06:19.862Z,-1.13
2022-11-16T05:08:48.450Z,-1.16
2022-11-16T05:11:16.300Z,-0.95
2022-11-16T05:13:43.462Z,-0.68
2022-11-16T05:16:10.408Z,-0.81
2022-11-16T05:18:37.448Z,-0.74
2022-11-16T05:21:05.285Z,-0.64
2022-11-16T05:23:38.775Z,-1.00
2022-11-16T05:26:10.670Z,-0.82
2022-11-16T05:28:38.254Z,-0.91
2022-11-16T05:31:05.296Z,-1.06
2022-11-16T05:33:32.522Z,-1.05
2022-11-16T05:36:00.222Z,-0.91
2022-11-16T05:38:28.976Z,-1.00
2022-11-16T05:40:58.842Z,-0.70
2022-11-16T05:43:25.748Z,-0.76
2022-11-16T05:46:03.416Z,-0.58
2022-11-16T05:48:30.680Z,-0.36
2022-11-16T05:51:00.131Z,-0.31
2022-11-16T05:53:30.529Z,-0.45
2022-11-16T05:55:58.789Z,-0.34
2022-11-16T05:58:25.812Z,-0.65
2022-11-16T06:00:53.649Z,-0.53
2022-11-16T06:03:20.650Z,-0.66
2022-11-16T06:05:47.618Z,-0.37
2022-11-16T06:08:16.782Z,-0.31
2022-11-16T06:10:43.805Z,-0.12
2022-11-16T06:13:10.815Z,-0.13
2022-11-16T06:15:39.380Z,0.22
2022-11-16T06:18:09.102Z,0.30
2022-11-16T06:20:38.996Z,0.11
2022-11-16T06:23:07.393Z,0.28
2022-11-16T06:25:35.252Z,0.21
2022-11-16T06:28:07.558Z,0.17
2022-11-16T06:30:35.666Z,0.11
2022-11-16T06:33:04.537Z,0.15
2022-11-16T06:35:33.188Z,0.25
2022-11-16T06:38:00.552Z,0.58
2022-11-16T06:40:27.611Z,0.45
2022-11-16T06:42:54.451Z,0.58
2022-11-16T06:45:21.569Z,0.36
2022-11-16T06:47:52.999Z,0.28
2022-11-16T06:50:20.125Z,0.34
2022-11-16T06:52:48.117Z,0.57
2022-11-16T06:55:16.864Z,0.86
2022-11-16T06:57:43.892Z,0.78
2022-11-16T07:00:11.554Z,1.13
2022-11-16T07:02:39.559Z,0.90
2022-11-16T07:05:09.797Z,0.66
2022-11-16T07:07:37.421Z,0.67
2022-11-16T07:10:05.104Z,0.40
2022-11-16T07:12:32.137Z,0.80
2022-11-16T07:15:00.397Z,0.89
2022-11-16T07:17:29.660Z,1.13
2022-11-16T07:19:57.811Z,0.99
2022-11-16T07:22:24.812Z,0.88
2022-11-16T07:24:53.317Z,1.10
2022-11-16T07:27:21.237Z,0.87
2022-11-16T07:29:50.785Z,1.42
2022-11-16T07:32:41.339Z,1.49
2022-11-16T07:35:27.782Z,1.61
2022-11-16T07:37:54.736Z,1.51
2022-11-16T07:40:22.334Z,1.36
2022-11-16T07:42:49.841Z,1.62
2022-11-16T07:45:45.788Z,1.48
2022-11-16T07:48:12.936Z,1.72
2022-11-16T07:51:14.424Z,1.95
2022-11-16T07:53:47.847Z,2.08
2022-11-16T07:56:14.834Z,1.81
2022-11-16T07:58:44.358Z,2.33
2022-11-16T08:01:15.568Z,2.47
2022-11-16T08:03:45.055Z,2.43
2022-11-16T08:06:28.097Z,2.54
2022-11-16T08:08:58.604Z,2.56
2022-11-16T08:11:27.155Z,2.28
2022-11-16T08:13:56.322Z,2.17
2022-11-16T08:16:23.633Z,2.18
2022-11-16T08:18:57.778Z,2.14
2022-11-16T08:21:25.593Z,1.75
2022-11-16T08:23:58.540Z,1.94
2022-11-16T08:26:27.473Z,1.94
2022-11-16T08:29:00.793Z,1.98
2022-11-16T08:31:32.212Z,1.72
2022-11-16T08:34:07.277Z,1.82
2022-11-16T08:36:36.402Z,1.78
2022-11-16T08:39:04.804Z,2.17
2022-11-16T08:41:32.842Z,1.86
2022-11-16T08:44:00.871Z,1.86
2022-11-16T08:46:28.421Z,1.53
2022-11-16T08:49:03.816Z,2.01
2022-11-16T08:51:30.813Z,1.52
2022-11-16T08:54:03.324Z,2.09
2022-11-16T08:56:31.448Z,1.88
2022-11-16T08:58:59.542Z,1.64
2022-11-16T09:01:30.227Z,1.54
2022-11-16T09:03:57.387Z,1.33
2022-11-16T09:06:26.359Z,1.27
2022-11-16T09:08:53.304Z,0.87
2022-11-16T09:11:23.384Z,1.48
2022-11-16T09:13:52.724Z,1.27
2022-11-16T09:16:20.903Z,1.52
2022-11-16T09:18:49.992Z,1.94
2022-11-16T09:21:22.116Z,1.76
2022-11-16T09:23:50.405Z,1.57
2022-11-16T09:26:18.841Z,1.55
2022-11-16T09:28:45.687Z,1.42
2022-11-16T09:31:12.537Z,1.36
2022-11-16T09:33:39.530Z,1.69
2022-11-16T09:36:08.889Z,1.48
2022-11-16T09:39:17.780Z,1.00
2022-11-16T09:41:56.281Z,1.37
2022-11-16T09:45:00.811Z,0.98
2022-11-16T09:47:51.724Z,1.28
2022-11-16T09:50:31.938Z,1.71
2022-11-16T09:53:23.675Z,1.15
2022-11-16T09:55:54.420Z,1.04
2022-11-16T09:58:31.830Z,1.17
2022-11-16T10:01:16.196Z,1.57
2022-11-16T10:03:48.225Z,1.49
2022-11-16T10:06:37.255Z,1.19
2022-11-16T10:09:05.115Z,1.55
2022-11-16T10:11:52.988Z,1.39
2022-11-16T10:14:48.693Z,1.76
2022-11-16T10:17:46.070Z,1.84
2022-11-16T10:20:40.612Z,2.24
2022-11-16T10:23:16.455Z,1.97
2022-11-16T10:25:57.573Z,1.92
2022-11-16T10:29:02.983Z,1.91
2022-11-16T10:32:01.487Z,1.26
2022-11-16T10:34:39.991Z,1.02
2022-11-16T10:37:07.712Z,1.04
2022-11-16T10:39:34.922Z,1.15
2022-11-16T10:42:07.728Z,1.32
2022-11-16T10:44:46.654Z,1.25
2022-11-16T10:47:49.142Z,1.58
2022-11-16T10:50:37.440Z,1.57
2022-11-16T10:53:04.843Z,1.36
2022-11-16T10:55:32.001Z,1.17
2022-11-16T10:58:05.111Z,1.35
2022-11-16T11:00:37.116Z,0.80
2022-11-16T11:03:04.390Z,1.29
2022-11-16T11:05:31.758Z,1.15
2022-11-16T11:08:03.591Z,1.14
2022-11-16T11:10:41.680Z,0.83
2022-11-16T11:13:11.926Z,1.06
2022-11-16T11:15:43.106Z,1.16
2022-11-16T11:18:15.937Z,1.12
2022-11-16T11:20:49.912Z,1.04
2022-11-16T11:23:25.880Z,0.66
2022-11-16T11:26:01.771Z,0.56
2022-11-16T11:28:32.426Z,0.66
2022-11-16T11:31:04.076Z,0.57
2022-11-16T11:33:35.940Z,0.70
2022-11-16T11:36:22.685Z,0.36
2022-11-16T11:39:04.371Z,0.38
2022-11-16T11:41:38.979Z,0.42
2022-11-16T11:44:17.699Z,0.77
2022-11-16T11:47:42.241Z,0.72
2022-11-16T11:49:54.226Z,0.12
2022-11-16T11:52:56.841Z,0.38
2022-11-16T11:55:23.742Z,0.45
2022-11-16T11:57:53.243Z,0.32
2022-11-16T12:00:20.817Z,0.18
2022-11-16T12:02:50.462Z,-0.11
2022-11-16T12:05:26.334Z,-0.22
2022-11-16T12:08:17.712Z,0.23
2022-11-16T12:11:00.010Z,-0.47
2022-11-16T12:13:43.215Z,-0.61
2022-11-16T12:16:35.520Z,-0.51
2022-11-16T12:19:08.562Z,-0.24
2022-11-16T12:22:19.857Z,0.12
2022-11-16T12:25:15.028Z,-0.01
2022-11-16T12:28:23.474Z,-0.15
2022-11-16T12:31:11.780Z,-0.19
2022-11-16T12:33:50.301Z,-0.18
2022-11-16T12:36:35.694Z,0.04
2022-11-16T12:39:23.376Z,-0.25
2022-11-16T12:42:08.360Z,-0.39
2022-11-16T12:44:56.973Z,-0.27
2022-11-16T12:48:02.164Z,-0.12
2022-11-16T12:50:52.607Z,0.01
2022-11-16T12:53:53.695Z,-0.37
2022-11-16T12:56:29.555Z,-0.39
2022-11-16T12:59:20.666Z,-0.43
2022-11-16T13:02:09.241Z,-0.89
2022-11-16T13:04:43.669Z,-0.82
2022-11-16T13:07:24.982Z,-0.84
2022-11-16T13:10:03.207Z,-0.61
2022-11-16T13:12:32.539Z,-0.41
2022-11-16T13:15:01.990Z,-0.46
2022-11-16T13:17:33.428Z,-0.26
2022-11-16T13:20:31.583Z,-0.41
2022-11-16T13:23:07.599Z,-0.49
2022-11-16T13:26:09.942Z,-0.36
2022-11-16T13:28:50.695Z,-0.51
2022-11-16T13:31:20.678Z,-0.39
2022-11-16T13:33:51.227Z,-0.52
2022-11-16T13:36:36.650Z,-0.33
2022-11-16T13:39:07.243Z,-0.66
2022-11-16T13:41:39.364Z,-0.61
2022-11-16T13:44:16.407Z,-0.59
2022-11-16T13:47:00.735Z,-0.58
2022-11-16T13:49:35.028Z,-0.59
2022-11-16T13:52:22.462Z,-0.87
2022-11-16T13:54:54.003Z,-0.71
2022-11-16T13:57:27.068Z,-0.48
2022-11-16T14:00:21.370Z,-0.58
2022-11-16T14:02:48.719Z,-0.57
2022-11-16T14:05:33.865Z,-0.63
2022-11-16T14:08:20.691Z,-0.50
2022-11-16T14:10:50.481Z,-0.43
2022-11-16T14:13:36.032Z,-0.39
2022-11-16T14:16:15.361Z,-0.34
2022-11-16T14:18:43.985Z,-0.27
2022-11-16T14:21:19.834Z,-0.48
2022-11-16T14:24:28.990Z,-0.38
2022-11-16T14:27:17.090Z,-0.35
2022-11-16T14:30:04.592Z,-0.49
2022-11-16T14:32:41.257Z,-0.53
2022-11-16T14:35:27.570Z,-0.53
2022-11-16T14:38:01.751Z,-0.51
2022-11-16T14:40:30.788Z,-0.68
2022-11-16T14:43:16.371Z,-0.54
2022-11-16T14:45:48.413Z,-0.53
2022-11-16T14:48:19.179Z,-0.63
2022-11-16T14:51:00.311Z,-0.68
2022-11-16T14:53:29.512Z,-0.71
2022-11-16T14:56:11.478Z,-0.83
2022-11-16T14:58:39.455Z,-0.73
2022-11-16T15:01:12.829Z,-0.73
2022-11-16T15:03:53.531Z,-0.71
2022-11-16T15:06:21.922Z,-0.69
2022-11-16T15:08:52.804Z,-0.90
2022-11-16T15:11:30.773Z,-0.79
2022-11-16T15:13:57.704Z,-0.82
2022-11-16T15:16:24.544Z,-0.70
2022-11-16T15:19:02.205Z,-1.05
2022-11-16T15:21:29.429Z,-0.82
2022-11-16T15:24:15.913Z,-0.86
2022-11-16T15:26:43.567Z,-0.86
2022-11-16T15:29:28.800Z,-0.67
2022-11-16T15:31:55.945Z,-0.79
2022-11-16T15:34:22.976Z,-0.78
2022-11-16T15:36:49.968Z,-0.83
2022-11-16T15:39:27.605Z,-0.74
2022-11-16T15:42:00.371Z,-1.11
2022-11-16T15:44:33.857Z,-0.96
2022-11-16T15:47:06.428Z,-1.02
2022-11-16T15:49:37.352Z,-0.86
2022-11-16T15:52:05.833Z,-0.89
2022-11-16T15:54:35.321Z,-1.00
2022-11-16T15:57:09.166Z,-0.90
2022-11-16T15:59:37.444Z,-0.84
2022-11-16T16:02:05.037Z,-0.98
2022-11-16T16:04:32.279Z,-0.79
2022-11-16T16:07:00.830Z,-0.67
2022-11-16T16:09:34.274Z,-0.76
2022-11-16T16:12:24.688Z,-0.47
2022-11-16T16:14:53.440Z,-0.64
2022-11-16T16:17:26.413Z,-0.83
2022-11-16T16:20:07.196Z,-0.79
2022-11-16T16:22:37.758Z,-0.69
2022-11-16T16:25:06.625Z,-0.83
2022-11-16T16:27:39.931Z,-0.56
2022-11-16T16:30:07.862Z,-0.56
2022-11-16T16:32:37.219Z,-0.49
2022-11-16T16:35:07.578Z,-0.58
2022-11-16T16:37:35.645Z,-0.37
2022-11-16T16:40:04.353Z,-0.43
2022-11-16T16:42:31.377Z,-0.23
2022-11-16T16:44:59.983Z,-0.14
2022-11-16T16:47:26.914Z,-0.45
2022-11-16T16:49:56.854Z,-0.23
2022-11-16T16:52:23.928Z,-0.15
2022-11-16T16:54:51.150Z,-0.54
2022-11-16T16:57:18.821Z,-0.51
2022-11-16T16:59:49.326Z,-0.50
2022-11-16T17:02:16.792Z,-0.56
2022-11-16T17:04:44.522Z,-0.49
2022-11-16T17:07:11.847Z,-0.65
2022-11-16T17:09:39.402Z,-0.85
2022-11-16T17:12:07.422Z,-0.71
2022-11-16T17:14:35.074Z,-0.85
2022-11-16T17:17:03.597Z,-0.75
2022-11-16T17:19:30.916Z,-0.71
2022-11-16T17:21:59.238Z,-1.02
2022-11-16T17:24:27.825Z,-1.10
2022-11-16T17:26:58.578Z,-0.98
2022-11-16T17:29:26.216Z,-0.98
2022-11-16T17:31:54.287Z,-0.94
2022-11-16T17:34:21.792Z,-0.96
2022-11-16T17:36:49.315Z,-1.07
2022-11-16T17:39:17.016Z,-1.03
2022-11-16T17:41:44.718Z,-1.18
2022-11-16T17:44:21.618Z,-1.05
2022-11-16T17:46:50.040Z,-1.05
2022-11-16T17:49:20.117Z,-1.03
2022-11-16T17:51:48.202Z,-1.27
2022-11-16T17:54:15.643Z,-1.06
2022-11-16T17:56:43.603Z,-1.03
2022-11-16T17:59:10.815Z,-1.18
2022-11-16T18:01:38.233Z,-1.09
2022-11-16T18:04:05.708Z,-0.99
2022-11-16T18:06:33.161Z,-1.10
2022-11-16T18:09:00.530Z,-0.99
2022-11-16T18:11:29.252Z,-1.08
2022-11-16T18:14:01.181Z,-0.95
2022-11-16T18:16:33.502Z,-1.29
2022-11-16T18:19:09.088Z,-1.12
2022-11-16T18:21:42.357Z,-1.16
2022-11-16T18:24:11.458Z,-1.11
2022-11-16T18:26:40.147Z,-1.20
2022-11-16T18:29:09.794Z,-1.10
2022-11-16T18:31:37.155Z,-1.06
2022-11-16T18:34:08.465Z,-1.11
2022-11-16T18:36:42.801Z,-1.10
2022-11-16T18:39:10.042Z,-1.29
2022-11-16T18:41:43.326Z,-1.27
2022-11-16T18:44:12.226Z,-1.19
2022-11-16T18:46:39.634Z,-1.11
2022-11-16T18:49:07.643Z,-1.23
2022-11-16T18:51:34.895Z,-1.27
2022-11-16T18:54:02.372Z,-1.42
2022-11-16T18:56:32.417Z,-1.15
2022-11-16T18:58:59.749Z,-1.46
2022-11-16T19:01:27.851Z,-1.36
2022-11-16T19:03:56.561Z,-1.13
2022-11-16T19:06:24.541Z,-1.03
2022-11-16T19:08:56.628Z,-1.04
2022-11-16T19:11:24.469Z,-1.31
2022-11-16T19:13:57.546Z,-1.05
2022-11-16T19:16:26.521Z,-1.00
2022-11-16T19:18:53.804Z,-0.81
2022-11-16T19:21:23.145Z,-0.87
2022-11-16T19:23:52.541Z,-0.91
2022-11-16T19:26:22.346Z,-0.90
2022-11-16T19:28:58.087Z,-0.77
2022-11-16T19:31:28.206Z,-0.81
2022-11-16T19:33:58.870Z,-1.11
2022-11-16T19:36:27.733Z,-0.71
2022-11-16T19:38:55.296Z,-0.74
2022-11-16T19:41:24.888Z,-0.94
2022-11-16T19:43:54.180Z,-0.67
2022-11-16T19:46:21.292Z,-1.03
2022-11-16T19:48:48.519Z,-0.98
2022-11-16T19:51:21.009Z,-0.90
2022-11-16T19:53:48.841Z,-0.98
2022-11-16T19:56:18.238Z,-1.17
2022-11-16T19:58:46.419Z,-0.83
2022-11-16T20:01:15.075Z,-0.97
2022-11-16T20:03:42.436Z,-1.29
2022-11-16T20:06:17.637Z,-1.14
2022-11-16T20:08:50.090Z,-1.04
2022-11-16T20:11:23.076Z,-1.01
2022-11-16T20:13:52.546Z,-0.87
2022-11-16T20:16:21.872Z,-1.01
2022-11-16T20:18:50.152Z,-1.13
2022-11-16T20:21:27.994Z,-1.05
2022-11-16T20:24:00.265Z,-1.27
2022-11-16T20:26:33.008Z,-1.11
2022-11-16T20:29:00.707Z,-1.02
2022-11-16T20:31:30.407Z,-0.92
2022-11-16T20:34:05.865Z,-0.94
2022-11-16T20:36:34.884Z,-0.71
2022-11-16T20:39:02.009Z,-0.71
2022-11-16T20:41:30.758Z,-1.29
2022-11-16T20:44:02.435Z,-1.02
2022-11-16T20:46:32.427Z,-0.88
2022-11-16T20:49:00.399Z,-0.93
2022-11-16T20:51:28.775Z,-1.08
2022-11-16T20:53:56.403Z,-1.08
2022-11-16T20:56:23.370Z,-0.87
2022-11-16T20:58:50.819Z,-0.86
2022-11-16T21:01:19.149Z,-0.64
2022-11-16T21:03:46.327Z,-0.97
2022-11-16T21:06:14.623Z,-0.88
2022-11-16T21:08:42.305Z,-1.03
2022-11-16T21:11:21.390Z,-0.93
2022-11-16T21:13:51.341Z,-0.75
2022-11-16T21:16:18.451Z,-0.71
2022-11-16T21:18:45.342Z,-0.98
2022-11-16T21:21:14.129Z,-0.42
2022-11-16T21:23:43.124Z,-1.15
2022-11-16T21:26:15.390Z,-0.62
2022-11-16T21:28:42.397Z,-0.96
2022-11-16T21:31:17.954Z,-0.78
2022-11-16T21:33:45.800Z,-0.56
2022-11-16T21:36:15.327Z,-0.61
2022-11-16T21:38:42.863Z,-0.71
2022-11-16T21:41:11.474Z,-0.63
2022-11-16T21:43:38.977Z,-0.75
2022-11-16T21:46:20.104Z,-0.52
2022-11-16T21:48:47.789Z,-0.52
2022-11-16T21:51:17.759Z,-0.59
2022-11-16T21:53:44.803Z,-0.42
2022-11-16T21:56:15.625Z,-0.61
2022-11-16T21:58:44.452Z,-0.39
2022-11-16T22:01:12.775Z,-0.30
2022-11-16T22:03:39.891Z,-0.30
2022-11-16T22:06:11.896Z,-0.34
2022-11-16T22:08:40.542Z,-0.67
2022-11-16T22:11:08.669Z,-0.78
2022-11-16T22:13:37.157Z,-0.71
2022-11-16T22:16:15.093Z,-0.63
2022-11-16T22:18:43.076Z,-0.68
2022-11-16T22:21:11.240Z,-0.48
2022-11-16T22:23:38.894Z,-0.63
2022-11-16T22:26:08.903Z,-0.53
2022-11-16T22:28:37.931Z,-0.67
2022-11-16T22:31:06.732Z,-0.48
2022-11-16T22:33:35.315Z,-0.70
2022-11-16T22:36:04.511Z,-0.56
2022-11-16T22:38:34.600Z,-0.51
2022-11-16T22:41:01.543Z,-0.35
2022-11-16T22:43:33.844Z,-0.62
2022-11-16T22:46:03.981Z,-0.53
2022-11-16T22:48:39.569Z,-0.66
2022-11-16T22:51:18.421Z,-0.34
2022-11-16T22:53:45.513Z,-0.56
2022-11-16T22:56:13.408Z,-0.64
2022-11-16T22:58:40.633Z,-0.65
2022-11-16T23:01:09.422Z,-0.56
2022-11-16T23:03:37.735Z,-0.55
2022-11-16T23:06:06.253Z,-0.68
2022-11-16T23:08:34.597Z,-0.36
2022-11-16T23:11:08.079Z,-0.27
2022-11-16T23:13:38.081Z,-0.64
2022-11-16T23:16:05.609Z,-0.32
2022-11-16T23:18:32.861Z,-0.31
2022-11-16T23:21:00.271Z,-0.25
2022-11-16T23:23:27.130Z,-0.18
2022-11-16T23:26:00.493Z,-0.12
2022-11-16T23:28:28.062Z,-0.06
2022-11-16T23:30:55.439Z,-0.19
2022-11-16T23:33:24.881Z,-0.33
2022-11-16T23:35:51.945Z,-0.53
2022-11-16T23:38:19.107Z,-0.63
2022-11-16T23:40:46.583Z,-0.51
2022-11-16T23:43:16.921Z,-0.48
2022-11-16T23:45:44.848Z,-0.49
2022-11-16T23:48:18.252Z,-0.53
2022-11-16T23:50:49.628Z,-0.61
2022-11-16T23:53:16.742Z,-0.62
2022-11-16T23:56:05.805Z,-0.85
2022-11-16T23:58:36.691Z,-0.76
